LiveATC.Net - Listen to live air traffic control over the Internet! Contact for advertising information

ICAO: KOXC  IATA: OXC   Airport: Waterbury-Oxford Airport
City: Oxford   State/Province: Connecticut
Country: United States   Continent: North America
KOXC METAR Weather: KOXC 062150Z 33005KT 10SM SKC 18/08 A2995
KOXC Flight Activity (FlightAware)
KOXC Airport Info   (AirNav) (iFlightPlanner)
KOXC VFR Sectional Chart   (iFlightPlanner) 
KOXC IFR Low Chart   (iFlightPlanner) 
KOXC Ground/Tower
Feed Status: UP   Listeners: 2
Listen right in your browser - requires Flash (in browser, requires Flash)
Click here to listen with your own player (launches your MP3 player)
KOXC Ground/Tower Audio Archives
Oxford Ground121.650
Oxford Tower118.475


Unauthorized use prohibited. See Terms of Service

Find LiveATC Audio Streams

Airport/ARTCC Code

(e.g., 124.400, 128.75)
Site-wide search

Browse LiveATC Feeds
LiveATC Coverage Map
Top 50 LiveATC Feeds
Bad Weather Areas

Offer a LiveATC Feed
Press Inquiries

LiveATC on iPhone
LiveATC on Android

LiveATC Mobile
(Mobile browser)

ATC Audio Archives
Interesting Recordings

LiveATC Forums

Home Page
Make a Donation
LiveATC Bookstore

Terms of Use
Privacy Policy

ATC/Radar Sites
U.S. ARTCC Freqs
Canadian Air Freqs


FAA Airport Status
Nat'l Airspace Status
Arrival Demand Charts

Server Software By:

Please make a donation to help us keep growing!